Weather observations for the past three days for
Frankfort, Frankfort Dow Memorial Field Airport
Imperial (Metric)
Date Time (edt) Wind (mph) Vis. (mi.) Weather Sky Cond. Temperature (ºF) Relative Humidity Wind Chill (°F) Heat Index (°F) Pressure Precipitation (in)
Air Dwpt 6 hour altimeter (in) sea level (mb) 1 hr 3 hr 6 hr
Max. Min.
31 20:55 S 3 10.00 Fair CLR 77 69.8 79% 79 29.87 0.0
31 20:35 Vrbl 2 10.00 Fair CLR 77 68 74% 79 29.86 0.0
31 20:15 Vrbl 5 10.00 Fair CLR 77 68 74% 79 29.86 0.0
31 19:55 Vrbl 7 10.00 Fair CLR 77 68 81.1 75 74% 79 29.86 0.0
31 19:35 Vrbl 5 10.00 Fair CLR 75.2 68 78% 76 29.86 0.0
31 19:15 Vrbl 6 10.00 Fair CLR 75.2 68 78% 76 29.86 0.0
31 18:35 S 8 G 17 10.00 Fair CLR 77 68 74% 79 29.86 0.0
31 18:15 SW 9 G 16 10.00 Fair CLR 78.8 68 70% 81 29.85 0.0
31 17:55 S 8 G 16 10.00 Fair CLR 78.8 68 70% 81 29.85 0.0
31 17:35 SW 12 G 20 10.00 Fair CLR 77 68 74% 79 29.85 0.0
31 17:15 S 10 G 20 10.00 Fair CLR 77 68 74% 79 29.86 0.0
31 16:55 SW 13 G 21 10.00 Fair CLR 78.8 69.8 74% 81 29.86 0.0
31 16:35 S 16 G 21 10.00 Fair CLR 78.8 69.8 74% 81 29.86 0.0
31 16:15 S 12 G 18 10.00 Fair CLR 77 68 74% 79 29.86 0.0
31 15:55 SW 13 G 21 10.00 Fair CLR 78.8 68 70% 81 29.86 0.0
31 15:35 SW 13 G 25 10.00 Fair CLR 78.8 69.8 74% 81 29.87 0.0
31 15:15 SW 14 G 25 10.00 Fair CLR 78.8 68 70% 81 29.86 0.0
31 14:55 S 14 G 22 10.00 Fair CLR 78.8 69.8 74% 81 29.86 0.0
31 14:35 S 14 G 26 10.00 Fair CLR 78.8 68 70% 81 29.87 0.0
31 14:15 S 16 G 26 10.00 Fair CLR 80.6 69.8 70% 84 29.87 0.0
31 13:55 S 15 G 25 10.00 Fair CLR 80.6 68 82.8 69.4 66% 83 29.87 0.0
31 13:35 S 15 G 23 10.00 Fair CLR 82.4 68 62% 85 29.87 0.0
31 13:15 S 12 G 21 10.00 Fair CLR 82.4 69.8 66% 86 29.87 0.0
31 12:55 S 10 G 22 10.00 Fair CLR 82.4 71.6 70% 87 29.87 0.0
31 12:35 S 14 G 20 10.00 Fair CLR 80.6 71.6 74% 85 29.87 0.0
31 12:15 S 15 10.00 Fair CLR 78.8 71.6 79% 82 29.89 0.0
31 11:55 SE 12 10.00 Fair CLR 77 71.6 83% 78 29.89 0.0
31 11:35 SE 12 G 17 10.00 A Few Clouds FEW080 75.2 69.8 83% 75 29.9 0.0
31 11:15 SE 13 10.00 Mostly Cloudy BKN080 BKN095 73.4 69.8 89% 29.9 0.0
31 10:55 SE 9 10.00 Overcast OVC080 71.6 69.8 94% 29.91 0.0 0.06
31 10:35 SE 7 10.00 Mostly Cloudy FEW065 BKN080 BKN110 71.6 69.8 94% 29.91 0.0
31 10:15 SE 9 10.00 Light Rain SCT047 BKN065 OVC090 71.6 69.8 94% 29.92 0.0
31 09:55 SE 8 2.00 Heavy Rain Fog/Mist SCT016 BKN045 OVC080 71.6 69.8 94% 29.93 0.0 0.06
31 09:35 SE 6 10.00 Mostly Cloudy BKN080 BKN120 71.6 69.8 94% 29.94 0.0
31 09:15 SE 6 10.00 Mostly Cloudy BKN080 71.6 69.8 94% 29.94 0.0
31 08:55 E 7 10.00 Overcast OVC080 71.6 69.8 94% 29.93 0.0 0.01
31 08:35 SE 8 10.00 Overcast FEW060 OVC070 69.8 68 94% 29.93 0.0
31 08:15 Vrbl 3 9.00 Overcast BKN060 OVC070 69.8 68 94% 29.94 0.0
31 07:55 SE 7 5.00 Light Rain Fog/Mist FEW006 OVC060 69.8 68 72.5 69.4 94% 29.93 0.0 0.27
31 07:35 SE 6 3.00 Rain Fog/Mist FEW050 BKN060 69.8 69.8 100% 29.93 0.0
31 07:15 SW 2 1.75 Heavy Rain Fog/Mist SCT050 BKN075 BKN100 69.8 69.8 100% 29.94 0.0
31 06:55 E 3 3.00 Rain Fog/Mist SCT070 BKN090 BKN110 69.8 69.8 100% 29.91 0.0 0.07
31 06:35 E 3 7.00 Light Rain SCT070 SCT090 BKN120 69.8 69.8 100% 29.92 0.0
31 06:15 Vrbl 1 10.00 Mostly Cloudy FEW075 BKN110 69.8 68 94% 29.91 0.0
31 05:55 SE 3 10.00 Mostly Cloudy FEW080 BKN110 69.8 69.8 100% 29.91 0.0
31 05:35 SE 6 10.00 Light Rain FEW080 SCT110 71.6 69.8 94% 29.92 0.0
31 05:15 SE 3 10.00 Light Rain SCT120 71.6 69.8 94% 29.94 0.0
31 04:55 Vrbl 6 10.00 Partly Cloudy SCT110 71.6 69.8 94% 29.96 0.0
31 04:35 Vrbl 3 10.00 A Few Clouds FEW120 71.6 69.8 94% 29.96 0.0
31 04:15 S 5 10.00 Fair CLR 71.6 69.8 94% 29.95 0.0
31 03:55 SW 5 10.00 A Few Clouds FEW085 71.6 69.8 94% 29.96 0.0
31 03:35 Vrbl 3 10.00 Fair CLR 71.6 69.8 94% 29.95 0.0
31 03:15 Vrbl 2 10.00 Fair CLR 71.6 68 88% 29.94 0.0
31 02:55 S 3 10.00 Fair CLR 71.6 68 88% 29.94 0.0
31 02:35 Vrbl 3 10.00 A Few Clouds FEW065 71.6 68 88% 29.94 0.0
31 02:15 S 5 10.00 Partly Cloudy FEW065 SCT080 71.6 68 88% 29.94 0.0
31 01:55 S 3 10.00 Mostly Cloudy BKN085 71.6 68 73.4 69.6 88% 29.94 0.0
31 01:35 Vrbl 1 10.00 Mostly Cloudy SCT045 BKN085 71.6 68 88% 29.95 0.0
31 01:15 S 3 10.00 Overcast OVC045 71.6 68 88% 29.95 0.0
31 00:55 S 3 10.00 Overcast OVC045 69.8 68 94% 29.95 0.0
31 00:35 Vrbl 2 10.00 Mostly Cloudy FEW043 BKN049 71.6 68 88% 29.94 0.0
31 00:15 Vrbl 1 7.00 Fog/Mist FEW050 69.8 68 94% 29.93 0.0
30 23:55 E 1 10.00 Mostly Cloudy BKN050 71.6 68 88% 29.93 0.0
30 23:35 S 1 10.00 Overcast OVC050 71.6 68 88% 29.94 0.0
30 23:15 Vrbl 2 10.00 Overcast OVC050 71.6 68 88% 29.93 0.0
30 22:55 SE 2 10.00 Overcast OVC050 71.6 69.8 94% 29.94 0.0
30 22:35 E 2 10.00 Overcast OVC048 71.6 68 88% 29.94 0.0
30 22:15 E 2 10.00 Overcast OVC048 71.6 68 88% 29.94 0.0
30 21:55 SE 2 10.00 Overcast OVC048 71.6 68 88% 29.94 0.0
30 21:35 SW 1 10.00 Overcast OVC050 71.6 68 88% 29.94 0.0
30 21:15 SE 2 10.00 Overcast BKN048 OVC050 71.6 68 88% 29.94 0.0
30 20:55 SE 3 10.00 Overcast FEW042 OVC050 73.4 68 83% 29.93 0.0
30 20:35 Calm 10.00 Overcast OVC050 73.4 68 83% 29.93 0.0
30 20:15 E 3 10.00 Overcast OVC050 73.4 68 83% 29.92 0.0
30 19:55 Vrbl 5 10.00 Overcast FEW031 OVC048 73.4 68 77.2 73.2 83% 29.92 0.0
30 19:35 NE 3 10.00 Mostly Cloudy BKN048 BKN060 73.4 68 83% 29.93 0.0
30 19:15 NE 8 10.00 Mostly Cloudy SCT048 BKN060 73.4 68 83% 29.92 0.0
30 18:55 E 5 10.00 Overcast OVC046 73.4 68 83% 29.91 0.0
30 18:35 SW 3 10.00 Overcast OVC048 73.4 68 83% 29.93 0.0
30 18:15 S 5 10.00 Overcast OVC050 75.2 68 78% 76 29.93 0.0
30 17:55 Vrbl 7 10.00 Overcast OVC065 77 68 74% 79 29.92 0.0
30 17:35 S 5 10.00 Overcast OVC065 75.2 68 78% 76 29.92 0.0
30 17:15 SW 8 G 17 10.00 Overcast OVC065 73.4 68 83% 29.93 0.0
30 16:55 SW 9 10.00 Overcast OVC065 73.4 68 83% 29.93 0.0
30 16:35 SW 13 G 20 10.00 Overcast OVC065 73.4 68 83% 29.93 0.0
30 16:15 SW 9 G 16 10.00 Overcast OVC065 73.4 68 83% 29.93 0.0
30 15:55 SW 7 10.00 Overcast OVC065 73.4 68 83% 29.93 0.0
30 15:35 SW 12 G 17 10.00 Mostly Cloudy BKN065 75.2 68 78% 76 29.93 0.0
30 15:15 SW 13 G 21 10.00 Overcast FEW035 BKN065 OVC075 77 68 74% 79 29.92 0.0
30 14:55 S 14 G 23 10.00 Overcast OVC065 75.2 68 78% 76 29.93 0.0
30 14:35 SW 12 G 20 10.00 Mostly Cloudy SCT065 BKN075 75.2 68 78% 76 29.93 0.0
30 14:15 S 14 G 20 10.00 Mostly Cloudy BKN075 75.2 68 78% 76 29.92 0.0
30 13:55 SW 13 G 20 10.00 Overcast OVC065 75.2 68 74.8 67.6 78% 76 29.93 0.0
30 13:35 SW 10 G 18 10.00 Overcast OVC075 75.2 68 78% 76 29.93 0.0
30 13:15 SW 13 G 20 10.00 Overcast OVC075 75.2 68 78% 76 29.94 0.0
30 12:55 S 12 G 17 10.00 Overcast OVC060 73.4 68 83% 29.94 0.0
30 12:35 S 9 10.00 Overcast FEW019 OVC060 75.2 68 78% 76 29.94 0.0
30 12:15 S 8 10.00 Overcast FEW019 BKN038 OVC060 75.2 68 78% 76 29.94 0.0
30 11:55 SE 7 10.00 Overcast OVC038 73.4 68 83% 29.94 0.0
30 11:35 S 8 10.00 Overcast FEW018 OVC036 71.6 66.2 83% 29.95 0.0
30 11:15 S 5 10.00 Overcast OVC036 69.8 66.2 88% 29.96 0.0
30 10:55 S 6 10.00 Overcast BKN036 OVC044 69.8 66.2 88% 29.95 0.0
30 10:35 S 9 10.00 Overcast FEW015 BKN034 OVC044 69.8 66.2 88% 29.94 0.0
30 10:15 S 8 10.00 Overcast OVC036 69.8 64.4 83% 29.95 0.0
30 09:55 S 5 10.00 Overcast OVC036 68 64.4 88% 29.96 0.0
30 09:35 S 6 10.00 Overcast OVC038 68 64.4 88% 29.95 0.0
30 09:15 Vrbl 7 10.00 Overcast OVC038 68 64.4 88% 29.95 0.0
30 08:55 S 8 10.00 Overcast OVC038 68 64.4 88% 29.94 0.0
30 08:35 S 9 10.00 Overcast OVC038 68 64.4 88% 29.94 0.0
30 08:15 S 8 10.00 Overcast OVC038 68 64.4 88% 29.95 0.0
30 07:55 S 9 10.00 Overcast OVC038 68 64.4 68 65.1 88% 29.95 0.0 0.01
30 07:35 Vrbl 6 10.00 Overcast OVC036 68 64.4 88% 29.94 0.0
30 07:15 S 7 G 16 10.00 Light Rain OVC034 68 64.4 88% 29.94 0.0
30 06:55 S 12 10.00 Overcast OVC034 68 64.4 88% 29.93 0.0
30 06:35 S 7 10.00 Overcast OVC036 68 64.4 88% 29.94 0.0
30 06:15 SE 6 10.00 Overcast OVC038 68 64.4 88% 29.93 0.0
30 05:55 S 7 10.00 Overcast OVC038 68 64.4 88% 29.94 0.0
30 05:35 S 7 10.00 Overcast OVC040 68 64.4 88% 29.94 0.0
30 05:15 SE 9 10.00 Light Rain OVC040 68 64.4 88% 29.94 0.0
30 04:55 S 7 G 16 10.00 Overcast OVC042 68 62.6 83% 29.95 0.0
30 04:35 SE 9 10.00 Overcast OVC047 68 62.6 83% 29.95 0.0
30 04:15 SE 8 10.00 Overcast OVC047 68 62.6 83% 29.95 0.0
30 03:55 SE 10 10.00 Overcast OVC047 68 62.6 83% 29.96 0.0
30 03:35 SE 8 10.00 Overcast SCT049 BKN060 OVC075 66.2 62.6 88% 29.96 0.0
30 03:15 SE 10 10.00 Overcast OVC070 66.2 62.6 88% 29.97 0.0
30 02:55 SE 9 10.00 Overcast FEW048 OVC080 66.2 62.6 88% 29.98 0.0
30 02:35 SE 10 10.00 Overcast BKN048 OVC080 66.2 62.6 88% 29.99 0.0
30 02:15 SE 7 10.00 Overcast BKN048 OVC090 66.2 62.6 88% 30 0.0
30 01:55 SE 7 10.00 Overcast OVC090 66.2 62.6 67.3 64.6 88% 30.01 0.0
30 01:35 SE 6 10.00 Overcast OVC090 64.4 62.6 94% 30.02 0.0
30 01:15 SE 5 10.00 Overcast OVC090 64.4 62.6 94% 30.02 0.0
30 00:55 SE 5 10.00 Overcast FEW042 FEW050 OVC090 64.4 62.6 94% 30.02 0.0
30 00:35 SE 5 10.00 Overcast BKN044 BKN050 OVC090 64.4 62.6 94% 30.02 0.0
30 00:15 SE 5 10.00 Overcast OVC046 64.4 62.6 94% 30.02 0.0
29 23:55 E 5 10.00 Overcast OVC050 64.4 62.6 94% 30.02 0.0
29 23:35 E 6 10.00 Overcast SCT060 OVC090 64.4 62.6 94% 30.02 0.0
29 23:15 SE 5 10.00 Overcast FEW060 OVC090 64.4 62.6 94% 30.03 0.0
29 22:55 SE 6 10.00 Overcast SCT070 OVC090 64.4 62.6 94% 30.04 0.0 0.02
29 22:35 SE 6 10.00 Overcast BKN065 OVC080 64.4 62.6 94% 30.04 0.0
29 22:15 SE 6 8.00 Light Rain SCT020 BKN065 OVC080 64.4 62.6 94% 30.04 0.0
29 21:55 E 5 4.00 Light Rain Fog/Mist SCT020 BKN025 OVC040 64.4 64.4 100% 30.05 0.0 0.15
29 21:35 SE 3 4.00 Rain Fog/Mist BKN025 BKN040 OVC048 66.2 64.4 94% 30.05 0.0
29 21:15 SE 3 10.00 Light Drizzle FEW025 BKN040 OVC055 66.2 64.4 94% 30.04 0.0
29 20:55 E 7 5.00 Light Rain Fog/Mist SCT055 BKN080 66.2 64.4 94% 30.04 0.0 0.08
29 20:35 E 2 3.00 Light Rain Fog/Mist BKN055 66.2 66.2 100% 30.04 0.0
29 20:15 S 3 5.00 Light Rain Fog/Mist SCT010 OVC060 68 66.2 94% 30.04 0.0
29 19:55 S 2 6.00 Light Rain Fog/Mist SCT012 OVC070 68 66.2 72.3 67.3 94% 30.04 0.0 0.01
29 19:35 Vrbl 3 7.00 Light Rain OVC070 68 64.4 88% 30.04 0.0
29 19:15 Vrbl 3 9.00 Light Rain OVC070 68 66.2 94% 30.04 0.0
29 18:55 S 6 9.00 Overcast OVC080 68 66.2 94% 30.04 0.0
29 18:35 SW 8 6.00 Fog/Mist OVC090 68 66.2 94% 30.05 0.0
29 18:15 Vrbl 5 9.00 Overcast OVC090 68 66.2 94% 30.05 0.0
29 17:55 S 3 5.00 Fog/Mist SCT065 SCT075 OVC090 68 66.2 94% 30.05 0.0
29 17:35 Vrbl 5 10.00 Overcast FEW007 BKN075 OVC080 68 66.2 94% 30.05 0.0
29 17:15 SW 7 9.00 Overcast BKN007 BKN075 OVC110 68 66.2 94% 30.05 0.0
29 16:35 S 5 6.00 Light Rain Fog/Mist OVC007 68 66.2 94% 30.06 0.0
29 16:15 SW 6 6.00 Light Rain Fog/Mist BKN009 BKN027 OVC060 68 66.2 94% 30.08 0.0
29 15:55 SW 8 5.00 Light Rain Fog/Mist BKN009 BKN042 OVC070 68 66.2 94% 30.08 0.0 0.03
29 15:35 Vrbl 5 6.00 Light Rain Fog/Mist SCT011 BKN047 OVC070 69.8 66.2 88% 30.09 0.0
29 15:15 SW 7 8.00 Light Rain BKN046 BKN060 OVC070 69.8 66.2 88% 30.09 0.0
29 14:55 Vrbl 7 10.00 Mostly Cloudy BKN046 BKN050 BKN070 71.6 66.2 83% 30.09 0.0
29 14:35 Vrbl 6 10.00 Mostly Cloudy BKN050 BKN070 71.6 66.2 83% 30.08 0.0
29 14:15 SW 7 10.00 Overcast OVC050 71.6 66.2 83% 30.08 0.0
29 13:55 SW 7 10.00 Mostly Cloudy BKN050 71.6 66.2 74.5 67.6 83% 30.08 0.0
29 13:35 S 9 10.00 Partly Cloudy SCT050 71.6 66.2 83% 30.09 0.0
29 13:15 SW 8 10.00 Mostly Cloudy BKN050 BKN065 71.6 64.4 78% 30.09 0.0
29 12:55 Vrbl 7 10.00 A Few Clouds FEW050 73.4 64.4 74% 30.09 0.0
29 12:35 SW 8 10.00 Mostly Cloudy SCT048 BKN060 73.4 64.4 74% 30.09 0.0
29 12:15 S 7 10.00 Mostly Cloudy BKN050 BKN060 73.4 64.4 74% 30.1 0.0
29 11:55 S 7 10.00 Partly Cloudy SCT050 73.4 66.2 78% 30.1 0.0
29 11:35 Vrbl 6 10.00 Fair CLR 71.6 64.4 78% 30.1 0.0
29 11:15 SW 7 10.00 Fair CLR 71.6 66.2 83% 30.1 0.0
29 10:55 SW 8 10.00 Fair CLR 73.4 66.2 78% 30.09 0.0
29 10:35 SW 7 10.00 Fair CLR 73.4 66.2 78% 30.09 0.0
29 10:15 Vrbl 6 10.00 Fair CLR 71.6 66.2 83% 30.1 0.0
29 09:55 SW 6 10.00 Fair CLR 69.8 66.2 88% 30.1 0.0
29 09:35 SW 7 10.00 Fair CLR 69.8 64.4 83% 30.1 0.0
29 09:15 SW 9 10.00 Fair CLR 69.8 64.4 83% 30.1 0.0
29 08:55 SW 7 10.00 Fair CLR 69.8 64.4 83% 30.09 0.0
29 08:35 S 6 10.00 Fair CLR 68 64.4 88% 30.09 0.0
29 08:15 Vrbl 5 10.00 Fair CLR 68 64.4 88% 30.08 0.0
29 07:55 S 6 10.00 Fair CLR 68 62.6 69.3 63.5 83% 30.08 0.0
29 07:35 Vrbl 7 10.00 Fair CLR 68 62.6 83% 30.08 0.0
29 07:15 Vrbl 6 10.00 Fair CLR 68 62.6 83% 30.08 0.0
29 06:55 Vrbl 7 10.00 Fair CLR 68 62.6 83% 30.08 0.0
29 06:35 SW 7 10.00 Fair CLR 68 62.6 83% 30.08 0.0
29 06:15 Vrbl 6 10.00 Fair CLR 68 62.6 83% 30.09 0.0
29 05:55 SW 6 10.00 Fair CLR 68 62.6 83% 30.08 0.0
29 05:35 Vrbl 5 10.00 Fair CLR 68 62.6 83% 30.07 0.0
29 05:15 Vrbl 5 10.00 Fair CLR 68 62.6 83% 30.08 0.0
29 04:55 Vrbl 7 10.00 Fair CLR 68 60.8 78% 30.08 0.0
29 04:35 Vrbl 7 10.00 Fair CLR 69.8 60.8 73% 30.08 0.0
29 04:15 S 8 10.00 Fair CLR 69.8 60.8 73% 30.08 0.0
29 03:55 S 9 10.00 Fair CLR 69.8 59 69% 30.08 0.0
29 03:35 Vrbl 6 10.00 Fair CLR 68 59 73% 30.08 0.0
29 03:15 Vrbl 6 10.00 Fair CLR 68 59 73% 30.08 0.0
29 02:55 Vrbl 5 10.00 Fair CLR 68 57.2 69% 30.08 0.0
29 02:35 Vrbl 6 10.00 Fair CLR 68 57.2 69% 30.08 0.0
29 02:15 Vrbl 3 10.00 Fair CLR 68 57.2 69% 30.08 0.0
29 01:55 Vrbl 3 10.00 Fair CLR 66.2 57.2 69.4 58.5 73% 30.08 0.0
29 01:35 Vrbl 3 10.00 Fair CLR 62.6 57.2 83% 30.09 0.0
29 01:15 Vrbl 2 10.00 Fair CLR 60.8 57.2 88% 30.09 0.0
29 00:55 Vrbl 1 10.00 Fair CLR 60.8 57.2 88% 30.09 0.0
29 00:35 Vrbl 1 10.00 Fair CLR 60.8 57.2 88% 30.09 0.0
29 00:15 Vrbl 2 10.00 Fair CLR 59 57.2 94% 30.09 0.0
28 23:55 Vrbl 1 10.00 Fair CLR 59 57.2 94% 30.09 0.0
28 23:35 N 1 10.00 Fair CLR 59 57.2 94% 30.09 0.0
28 23:15 Vrbl 1 10.00 Fair CLR 60.8 57.2 88% 30.09 0.0
28 22:55 NE 2 10.00 Fair CLR 62.6 57.2 83% 30.09 0.0
28 22:35 Vrbl 1 10.00 Fair CLR 62.6 59 88% 30.09 0.0
28 22:15 Vrbl 2 10.00 Fair CLR 64.4 59 83% 30.1 0.0
28 21:55 Calm 10.00 Fair CLR 64.4 60.8 88% 30.1 0.0
28 21:35 N 1 10.00 Fair CLR 64.4 60.8 88% 30.1 0.0
28 21:15 Vrbl 2 10.00 Fair CLR 64.4 62.6 94% 30.1 0.0
Date Time (edt) Wind (mph) Vis. (mi.) Weather Sky Cond. Air Dwpt Max. Min. Relative Humidity Wind Chill (°F) Heat Index (°F) altimeter (in) sea level (mb) 1 hr 3 hr 6 hr
6 hour
Temperature (ºF) Pressure Precipitation (in)